sensor_id;sensor_type;location;lat;lon;timestamp;pressure;altitude;pressure_sealevel;temperature;humidity
80180;BME280;69505;52.134;5.438;2023-09-07T00:01:34;102154.28;;;16.60;97.13
80180;BME280;69505;52.134;5.438;2023-09-07T00:04:00;102154.66;;;16.56;97.32
80180;BME280;69505;52.134;5.438;2023-09-07T00:06:30;102146.88;;;16.53;97.32
80180;BME280;69505;52.134;5.438;2023-09-07T00:08:56;102147.13;;;16.50;97.67
80180;BME280;69505;52.134;5.438;2023-09-07T00:11:23;102152.00;;;16.44;97.43
80180;BME280;69505;52.134;5.438;2023-09-07T00:13:49;102144.19;;;16.41;97.66
80180;BME280;69505;52.134;5.438;2023-09-07T00:16:17;102147.88;;;16.40;97.51
80180;BME280;69505;52.134;5.438;2023-09-07T00:18:44;102147.16;;;16.38;96.99
80180;BME280;69505;52.134;5.438;2023-09-07T00:21:11;102135.06;;;16.33;97.06
80180;BME280;69505;52.134;5.438;2023-09-07T00:23:39;102147.75;;;16.31;97.22
80180;BME280;69505;52.134;5.438;2023-09-07T00:26:06;102131.94;;;16.28;98.12
80180;BME280;69505;52.134;5.438;2023-09-07T00:28:32;102146.28;;;16.27;98.16
80180;BME280;69505;52.134;5.438;2023-09-07T00:30:59;102133.50;;;16.19;98.45
80180;BME280;69505;52.134;5.438;2023-09-07T00:33:26;102132.16;;;16.13;98.02
80180;BME280;69505;52.134;5.438;2023-09-07T00:35:52;102137.53;;;16.13;98.23
80180;BME280;69505;52.134;5.438;2023-09-07T00:38:19;102135.59;;;16.15;98.35
80180;BME280;69505;52.134;5.438;2023-09-07T00:40:46;102141.16;;;16.12;98.42
80180;BME280;69505;52.134;5.438;2023-09-07T00:43:12;102136.06;;;16.09;98.53
80180;BME280;69505;52.134;5.438;2023-09-07T00:45:39;102138.88;;;16.08;98.49
80180;BME280;69505;52.134;5.438;2023-09-07T00:48:06;102136.44;;;16.05;98.73
80180;BME280;69505;52.134;5.438;2023-09-07T00:50:34;102131.41;;;16.00;98.94
80180;BME280;69505;52.134;5.438;2023-09-07T00:53:00;102131.41;;;16.00;99.16
80180;BME280;69505;52.134;5.438;2023-09-07T00:55:29;102134.84;;;16.02;98.47
80180;BME280;69505;52.134;5.438;2023-09-07T00:57:59;102124.00;;;15.92;98.76
80180;BME280;69505;52.134;5.438;2023-09-07T01:00:26;102124.38;;;15.88;99.29
80180;BME280;69505;52.134;5.438;2023-09-07T01:02:53;102127.06;;;15.88;99.29
80180;BME280;69505;52.134;5.438;2023-09-07T01:05:26;102118.28;;;15.86;99.43
80180;BME280;69505;52.134;5.438;2023-09-07T01:08:10;102129.97;;;15.85;99.54
80180;BME280;69505;52.134;5.438;2023-09-07T01:10:38;102124.59;;;15.85;99.84
80180;BME280;69505;52.134;5.438;2023-09-07T01:13:04;102117.56;;;15.83;100.00
80180;BME280;69505;52.134;5.438;2023-09-07T01:15:31;102117.88;;;15.79;99.75
80180;BME280;69505;52.134;5.438;2023-09-07T01:17:58;102125.34;;;15.75;99.73
80180;BME280;69505;52.134;5.438;2023-09-07T01:20:47;102118.59;;;15.70;99.91
80180;BME280;69505;52.134;5.438;2023-09-07T01:23:14;102122.38;;;15.67;99.29
80180;BME280;69505;52.134;5.438;2023-09-07T01:25:41;102127.00;;;15.65;99.08
80180;BME280;69505;52.134;5.438;2023-09-07T01:28:09;102127.94;;;15.64;99.97
80180;BME280;69505;52.134;5.438;2023-09-07T01:30:36;102133.56;;;15.61;99.52
80180;BME280;69505;52.134;5.438;2023-09-07T01:33:05;102123.06;;;15.58;100.00
80180;BME280;69505;52.134;5.438;2023-09-07T01:35:33;102125.00;;;15.56;99.86
80180;BME280;69505;52.134;5.438;2023-09-07T01:38:01;102124.41;;;15.52;99.94
80180;BME280;69505;52.134;5.438;2023-09-07T01:40:28;102121.84;;;15.51;100.00
80180;BME280;69505;52.134;5.438;2023-09-07T01:42:55;102123.69;;;15.50;99.90
80180;BME280;69505;52.134;5.438;2023-09-07T01:45:21;102121.13;;;15.49;100.00
80180;BME280;69505;52.134;5.438;2023-09-07T01:47:49;102124.78;;;15.48;100.00
80180;BME280;69505;52.134;5.438;2023-09-07T01:50:17;102118.91;;;15.42;99.69
80180;BME280;69505;52.134;5.438;2023-09-07T01:52:47;102110.97;;;15.41;100.00
80180;BME280;69505;52.134;5.438;2023-09-07T01:55:15;102110.59;;;15.34;100.00
80180;BME280;69505;52.134;5.438;2023-09-07T01:57:42;102110.84;;;15.31;99.66
80180;BME280;69505;52.134;5.438;2023-09-07T02:00:09;102118.16;;;15.29;100.00
80180;BME280;69505;52.134;5.438;2023-09-07T02:02:36;102107.81;;;15.25;100.00
80180;BME280;69505;52.134;5.438;2023-09-07T02:05:03;102121.03;;;15.26;99.72
80180;BME280;69505;52.134;5.438;2023-09-07T02:07:30;102115.31;;;15.19;99.53
80180;BME280;69505;52.134;5.438;2023-09-07T02:09:57;102110.94;;;15.18;99.87
80180;BME280;69505;52.134;5.438;2023-09-07T02:12:23;102108.38;;;15.17;100.00
80180;BME280;69505;52.134;5.438;2023-09-07T02:14:50;102117.16;;;15.19;99.87
80180;BME280;69505;52.134;5.438;2023-09-07T02:17:16;102110.06;;;15.18;100.00
80180;BME280;69505;52.134;5.438;2023-09-07T02:19:44;102117.50;;;15.14;100.00
80180;BME280;69505;52.134;5.438;2023-09-07T02:22:11;102117.50;;;15.14;100.00
80180;BME280;69505;52.134;5.438;2023-09-07T02:24:37;102120.28;;;15.13;100.00
80180;BME280;69505;52.134;5.438;2023-09-07T02:27:04;102110.78;;;15.09;100.00
80180;BME280;69505;52.134;5.438;2023-09-07T02:29:34;102117.22;;;15.06;100.00
80180;BME280;69505;52.134;5.438;2023-09-07T02:32:00;102121.00;;;15.04;100.00
80180;BME280;69505;52.134;5.438;2023-09-07T02:34:27;102109.66;;;15.00;100.00
80180;BME280;69505;52.134;5.438;2023-09-07T02:36:53;102111.47;;;14.99;100.00
80180;BME280;69505;52.134;5.438;2023-09-07T02:39:20;102113.41;;;14.97;100.00
80180;BME280;69505;52.134;5.438;2023-09-07T02:41:47;102108.91;;;14.98;100.00
80180;BME280;69505;52.134;5.438;2023-09-07T02:44:14;102116.41;;;14.93;100.00
80180;BME280;69505;52.134;5.438;2023-09-07T02:46:41;102120.06;;;14.92;100.00
80180;BME280;69505;52.134;5.438;2023-09-07T02:49:07;102119.22;;;14.91;100.00
80180;BME280;69505;52.134;5.438;2023-09-07T02:51:34;102116.66;;;14.90;100.00
80180;BME280;69505;52.134;5.438;2023-09-07T02:54:02;102119.81;;;14.95;100.00
80180;BME280;69505;52.134;5.438;2023-09-07T02:56:29;102116.66;;;14.90;100.00
80180;BME280;69505;52.134;5.438;2023-09-07T02:58:56;102121.91;;;14.91;100.00
80180;BME280;69505;52.134;5.438;2023-09-07T03:01:23;102118.34;;;14.91;100.00
80180;BME280;69505;52.134;5.438;2023-09-07T03:03:49;102117.84;;;14.86;100.00
80180;BME280;69505;52.134;5.438;2023-09-07T03:06:16;102119.69;;;14.85;100.00
80180;BME280;69505;52.134;5.438;2023-09-07T03:08:43;102124.19;;;14.85;100.00
80180;BME280;69505;52.134;5.438;2023-09-07T03:11:10;102124.41;;;14.81;100.00
80180;BME280;69505;52.134;5.438;2023-09-07T03:13:38;102127.19;;;14.80;100.00
80180;BME280;69505;52.134;5.438;2023-09-07T03:16:05;102128.25;;;14.77;100.00
80180;BME280;69505;52.134;5.438;2023-09-07T03:18:32;102118.66;;;14.75;100.00
80180;BME280;69505;52.134;5.438;2023-09-07T03:21:00;102118.88;;;14.72;100.00
80180;BME280;69505;52.134;5.438;2023-09-07T03:23:32;102130.44;;;14.72;100.00
80180;BME280;69505;52.134;5.438;2023-09-07T03:25:59;102131.50;;;14.70;100.00
80180;BME280;69505;52.134;5.438;2023-09-07T03:28:26;102119.56;;;14.63;100.00
80180;BME280;69505;52.134;5.438;2023-09-07T03:30:54;102117.00;;;14.61;100.00
80180;BME280;69505;52.134;5.438;2023-09-07T03:33:22;102120.84;;;14.57;99.74
80180;BME280;69505;52.134;5.438;2023-09-07T03:35:49;102120.66;;;14.60;99.90
80180;BME280;69505;52.134;5.438;2023-09-07T03:38:18;102121.50;;;14.60;100.00
80180;BME280;69505;52.134;5.438;2023-09-07T03:40:45;102124.50;;;14.56;99.67
80180;BME280;69505;52.134;5.438;2023-09-07T03:43:11;102125.34;;;14.56;100.00
80180;BME280;69505;52.134;5.438;2023-09-07T03:45:38;102116.56;;;14.54;99.78
80180;BME280;69505;52.134;5.438;2023-09-07T03:48:05;102116.91;;;14.50;100.00
80180;BME280;69505;52.134;5.438;2023-09-07T03:50:32;102118.72;;;14.49;100.00
80180;BME280;69505;52.134;5.438;2023-09-07T03:52:58;102119.78;;;14.47;100.00
80180;BME280;69505;52.134;5.438;2023-09-07T03:55:25;102116.38;;;14.45;100.00
80180;BME280;69505;52.134;5.438;2023-09-07T03:57:52;102119.91;;;14.45;100.00
80180;BME280;69505;52.134;5.438;2023-09-07T04:00:20;102118.78;;;14.36;100.00
80180;BME280;69505;52.134;5.438;2023-09-07T04:02:47;102118.88;;;14.35;99.63
80180;BME280;69505;52.134;5.438;2023-09-07T04:05:14;102126.88;;;14.35;100.00
80180;BME280;69505;52.134;5.438;2023-09-07T04:07:40;102120.81;;;14.33;100.00
80180;BME280;69505;52.134;5.438;2023-09-07T04:10:07;102125.41;;;14.31;100.00
80180;BME280;69505;52.134;5.438;2023-09-07T04:12:34;102124.66;;;14.29;100.00
80180;BME280;69505;52.134;5.438;2023-09-07T04:15:02;102118.56;;;14.27;100.00
80180;BME280;69505;52.134;5.438;2023-09-07T04:17:29;102125.59;;;14.28;100.00
80180;BME280;69505;52.134;5.438;2023-09-07T04:19:56;102124.84;;;14.26;100.00
80180;BME280;69505;52.134;5.438;2023-09-07T04:22:22;102136.75;;;14.21;100.00
80180;BME280;69505;52.134;5.438;2023-09-07T04:24:49;102132.47;;;14.19;100.00
80180;BME280;69505;52.134;5.438;2023-09-07T04:27:16;102125.03;;;14.11;100.00
80180;BME280;69505;52.134;5.438;2023-09-07T04:29:43;102126.72;;;14.12;100.00
80180;BME280;69505;52.134;5.438;2023-09-07T04:32:09;102119.88;;;14.08;100.00
80180;BME280;69505;52.134;5.438;2023-09-07T04:34:36;102128.63;;;14.10;100.00
80180;BME280;69505;52.134;5.438;2023-09-07T04:37:03;102128.88;;;14.07;100.00
80180;BME280;69505;52.134;5.438;2023-09-07T04:39:29;102132.50;;;14.06;100.00
80180;BME280;69505;52.134;5.438;2023-09-07T04:41:56;102126.41;;;14.04;100.00
80180;BME280;69505;52.134;5.438;2023-09-07T04:44:22;102123.72;;;14.04;100.00
80180;BME280;69505;52.134;5.438;2023-09-07T04:46:49;102131.00;;;14.02;100.00
80180;BME280;69505;52.134;5.438;2023-09-07T04:49:18;102127.56;;;14.00;100.00
80180;BME280;69505;52.134;5.438;2023-09-07T04:51:44;102135.59;;;14.00;100.00
80180;BME280;69505;52.134;5.438;2023-09-07T04:54:11;102134.50;;;14.02;100.00
80180;BME280;69505;52.134;5.438;2023-09-07T04:56:37;102132.31;;;13.96;100.00
80180;BME280;69505;52.134;5.438;2023-09-07T04:59:04;102131.84;;;13.90;100.00
80180;BME280;69505;52.134;5.438;2023-09-07T05:01:31;102129.31;;;13.88;100.00
80180;BME280;69505;52.134;5.438;2023-09-07T05:03:58;102138.06;;;13.90;100.00
80180;BME280;69505;52.134;5.438;2023-09-07T05:06:25;102136.16;;;13.92;100.00
80180;BME280;69505;52.134;5.438;2023-09-07T05:08:52;102144.28;;;13.91;100.00
80180;BME280;69505;52.134;5.438;2023-09-07T05:11:19;102134.75;;;13.87;100.00
80180;BME280;69505;52.134;5.438;2023-09-07T05:13:46;102138.94;;;13.91;100.00
80180;BME280;69505;52.134;5.438;2023-09-07T05:16:12;102141.59;;;13.91;100.00
80180;BME280;69505;52.134;5.438;2023-09-07T05:18:41;102146.72;;;13.94;100.00
80180;BME280;69505;52.134;5.438;2023-09-07T05:21:13;102149.38;;;13.94;100.00
80180;BME280;69505;52.134;5.438;2023-09-07T05:23:40;102162.88;;;13.92;100.00
80180;BME280;69505;52.134;5.438;2023-09-07T05:26:07;102161.03;;;13.93;100.00
80180;BME280;69505;52.134;5.438;2023-09-07T05:28:33;102151.94;;;13.95;100.00
80180;BME280;69505;52.134;5.438;2023-09-07T05:31:00;102153.78;;;13.95;100.00
80180;BME280;69505;52.134;5.438;2023-09-07T05:33:27;102160.63;;;13.99;100.00
80180;BME280;69505;52.134;5.438;2023-09-07T05:35:53;102165.81;;;14.00;100.00
80180;BME280;69505;52.134;5.438;2023-09-07T05:38:20;102160.28;;;14.04;100.00
80180;BME280;69505;52.134;5.438;2023-09-07T05:40:47;102161.88;;;14.06;100.00
80180;BME280;69505;52.134;5.438;2023-09-07T05:43:20;102157.63;;;14.04;100.00
80180;BME280;69505;52.134;5.438;2023-09-07T05:45:47;102175.25;;;14.06;100.00
80180;BME280;69505;52.134;5.438;2023-09-07T05:48:14;102160.94;;;14.07;100.00
80180;BME280;69505;52.134;5.438;2023-09-07T05:50:44;102170.00;;;14.17;100.00
80180;BME280;69505;52.134;5.438;2023-09-07T05:53:11;102162.00;;;14.17;100.00
80180;BME280;69505;52.134;5.438;2023-09-07T05:55:37;102161.53;;;14.24;100.00
80180;BME280;69505;52.134;5.438;2023-09-07T05:58:06;102170.09;;;14.29;100.00
80180;BME280;69505;52.134;5.438;2023-09-07T06:00:34;102162.81;;;14.31;100.00
80180;BME280;69505;52.134;5.438;2023-09-07T06:03:02;102174.78;;;14.38;100.00
80180;BME280;69505;52.134;5.438;2023-09-07T06:05:30;102170.91;;;14.42;100.00
80180;BME280;69505;52.134;5.438;2023-09-07T06:07:57;102172.63;;;14.43;100.00
80180;BME280;69505;52.134;5.438;2023-09-07T06:10:23;102175.63;;;14.51;100.00
80180;BME280;69505;52.134;5.438;2023-09-07T06:12:50;102177.13;;;14.55;100.00
80180;BME280;69505;52.134;5.438;2023-09-07T06:15:17;102177.53;;;14.62;100.00
80180;BME280;69505;52.134;5.438;2023-09-07T06:17:43;102186.28;;;14.77;100.00
80180;BME280;69505;52.134;5.438;2023-09-07T06:20:12;102180.69;;;14.80;100.00
80180;BME280;69505;52.134;5.438;2023-09-07T06:22:40;102179.63;;;14.82;100.00
80180;BME280;69505;52.134;5.438;2023-09-07T06:25:07;102185.38;;;14.89;100.00
80180;BME280;69505;52.134;5.438;2023-09-07T06:27:34;102185.53;;;14.99;100.00
80180;BME280;69505;52.134;5.438;2023-09-07T06:30:01;102189.50;;;15.17;100.00
80180;BME280;69505;52.134;5.438;2023-09-07T06:32:27;102189.31;;;15.20;100.00
80180;BME280;69505;52.134;5.438;2023-09-07T06:34:54;102192.66;;;15.35;100.00
80180;BME280;69505;52.134;5.438;2023-09-07T06:37:20;102192.03;;;15.43;100.00
80180;BME280;69505;52.134;5.438;2023-09-07T06:39:47;102196.84;;;15.51;100.00
80180;BME280;69505;52.134;5.438;2023-09-07T06:42:14;102199.78;;;15.59;100.00
80180;BME280;69505;52.134;5.438;2023-09-07T06:44:42;102197.47;;;15.66;100.00
80180;BME280;69505;52.134;5.438;2023-09-07T06:47:09;102202.47;;;15.70;100.00
80180;BME280;69505;52.134;5.438;2023-09-07T06:49:38;102209.88;;;15.79;100.00
80180;BME280;69505;52.134;5.438;2023-09-07T06:52:04;102206.56;;;15.87;100.00
80180;BME280;69505;52.134;5.438;2023-09-07T06:54:31;102202.34;;;15.96;100.00
80180;BME280;69505;52.134;5.438;2023-09-07T06:56:57;102206.25;;;16.03;100.00
80180;BME280;69505;52.134;5.438;2023-09-07T06:59:24;102192.47;;;16.08;100.00
80180;BME280;69505;52.134;5.438;2023-09-07T07:01:51;102200.16;;;16.12;100.00
80180;BME280;69505;52.134;5.438;2023-09-07T07:04:17;102203.94;;;16.21;100.00
80180;BME280;69505;52.134;5.438;2023-09-07T07:06:44;102210.16;;;16.33;100.00
80180;BME280;69505;52.134;5.438;2023-09-07T07:09:11;102209.56;;;16.40;100.00
80180;BME280;69505;52.134;5.438;2023-09-07T07:11:37;102207.13;;;16.49;100.00
80180;BME280;69505;52.134;5.438;2023-09-07T07:14:05;102211.00;;;16.56;100.00
80180;BME280;69505;52.134;5.438;2023-09-07T07:16:32;102210.00;;;16.68;100.00
80180;BME280;69505;52.134;5.438;2023-09-07T07:18:58;102217.19;;;16.79;100.00
80180;BME280;69505;52.134;5.438;2023-09-07T07:21:25;102211.47;;;16.95;100.00
80180;BME280;69505;52.134;5.438;2023-09-07T07:23:52;102205.94;;;16.96;100.00
80180;BME280;69505;52.134;5.438;2023-09-07T07:26:18;102210.09;;;17.00;100.00
80180;BME280;69505;52.134;5.438;2023-09-07T07:28:45;102211.25;;;17.19;99.64
80180;BME280;69505;52.134;5.438;2023-09-07T07:31:11;102214.63;;;17.32;98.73
80180;BME280;69505;52.134;5.438;2023-09-07T07:33:38;102214.09;;;17.38;98.20
80180;BME280;69505;52.134;5.438;2023-09-07T07:36:05;102211.38;;;17.50;98.18
80180;BME280;69505;52.134;5.438;2023-09-07T07:38:31;102207.66;;;17.62;97.92
80180;BME280;69505;52.134;5.438;2023-09-07T07:40:58;102208.72;;;17.71;96.60
80180;BME280;69505;52.134;5.438;2023-09-07T07:43:25;102212.13;;;17.73;96.71
80180;BME280;69505;52.134;5.438;2023-09-07T07:45:53;102204.84;;;17.84;96.42
80180;BME280;69505;52.134;5.438;2023-09-07T07:48:20;102205.94;;;17.93;95.62
80180;BME280;69505;52.134;5.438;2023-09-07T07:50:47;102206.97;;;18.02;95.58
80180;BME280;69505;52.134;5.438;2023-09-07T07:53:13;102199.34;;;18.07;94.57
80180;BME280;69505;52.134;5.438;2023-09-07T07:55:41;102190.91;;;18.21;95.04
80180;BME280;69505;52.134;5.438;2023-09-07T07:58:09;102192.66;;;18.32;93.93
80180;BME280;69505;52.134;5.438;2023-09-07T08:00:39;102192.41;;;18.45;93.96
80180;BME280;69505;52.134;5.438;2023-09-07T08:03:13;102187.94;;;18.55;93.92
80180;BME280;69505;52.134;5.438;2023-09-07T08:05:40;102191.38;;;18.67;93.46
80180;BME280;69505;52.134;5.438;2023-09-07T08:08:07;102183.06;;;18.80;92.67
80180;BME280;69505;52.134;5.438;2023-09-07T08:10:35;102178.81;;;18.87;93.70
80180;BME280;69505;52.134;5.438;2023-09-07T08:13:03;102187.63;;;18.99;92.54
80180;BME280;69505;52.134;5.438;2023-09-07T08:15:32;102179.25;;;19.02;93.09
80180;BME280;69505;52.134;5.438;2023-09-07T08:17:59;102177.28;;;19.14;92.63
80180;BME280;69505;52.134;5.438;2023-09-07T08:20:26;102180.84;;;19.24;91.56
80180;BME280;69505;52.134;5.438;2023-09-07T08:22:53;102176.44;;;19.42;90.72
80180;BME280;69505;52.134;5.438;2023-09-07T08:25:20;102169.88;;;19.55;90.21
80180;BME280;69505;52.134;5.438;2023-09-07T08:27:47;102173.28;;;19.76;87.94
80180;BME280;69505;52.134;5.438;2023-09-07T08:30:16;102166.03;;;19.86;86.98
80180;BME280;69505;52.134;5.438;2023-09-07T08:32:44;102169.00;;;19.93;85.39
80180;BME280;69505;52.134;5.438;2023-09-07T08:35:12;102168.91;;;20.13;85.33
80180;BME280;69505;52.134;5.438;2023-09-07T08:37:40;102163.47;;;20.22;84.64
80180;BME280;69505;52.134;5.438;2023-09-07T08:40:08;102157.63;;;20.55;83.30
80180;BME280;69505;52.134;5.438;2023-09-07T08:42:35;102155.56;;;23.35;73.07
80180;BME280;69505;52.134;5.438;2023-09-07T08:45:08;102149.78;;;26.84;61.98
80180;BME280;69505;52.134;5.438;2023-09-07T08:47:37;102148.56;;;28.76;55.46
80180;BME280;69505;52.134;5.438;2023-09-07T08:50:05;102153.50;;;30.25;49.57
80180;BME280;69505;52.134;5.438;2023-09-07T08:52:35;102145.81;;;31.18;47.12
80180;BME280;69505;52.134;5.438;2023-09-07T08:55:02;102147.75;;;32.04;45.80
80180;BME280;69505;52.134;5.438;2023-09-07T08:57:31;102143.03;;;32.60;44.96
80180;BME280;69505;52.134;5.438;2023-09-07T08:59:59;102141.34;;;33.01;41.49
80180;BME280;69505;52.134;5.438;2023-09-07T09:02:26;102139.13;;;33.92;42.32
80180;BME280;69505;52.134;5.438;2023-09-07T09:04:53;102143.94;;;33.62;40.69
80180;BME280;69505;52.134;5.438;2023-09-07T09:07:20;102135.94;;;34.24;41.31
80180;BME280;69505;52.134;5.438;2023-09-07T09:09:50;102137.31;;;34.39;39.47
80180;BME280;69505;52.134;5.438;2023-09-07T09:12:16;102128.06;;;34.73;39.38
80180;BME280;69505;52.134;5.438;2023-09-07T09:14:44;102133.75;;;35.01;38.12
80180;BME280;69505;52.134;5.438;2023-09-07T09:17:12;102122.19;;;35.37;35.99
80180;BME280;69505;52.134;5.438;2023-09-07T09:19:41;102123.34;;;35.58;37.59
80180;BME280;69505;52.134;5.438;2023-09-07T09:22:08;102121.16;;;35.61;37.47
80180;BME280;69505;52.134;5.438;2023-09-07T09:24:36;102122.75;;;35.17;38.28
80180;BME280;69505;52.134;5.438;2023-09-07T09:27:03;102114.63;;;35.67;36.12
80180;BME280;69505;52.134;5.438;2023-09-07T09:29:36;102124.66;;;35.73;37.52
80180;BME280;69505;52.134;5.438;2023-09-07T09:32:05;102122.44;;;36.14;35.40
80180;BME280;69505;52.134;5.438;2023-09-07T09:34:36;102119.66;;;36.14;36.06
80180;BME280;69505;52.134;5.438;2023-09-07T09:37:03;102115.94;;;36.25;34.00
80180;BME280;69505;52.134;5.438;2023-09-07T09:39:30;102123.38;;;36.03;34.00
80180;BME280;69505;52.134;5.438;2023-09-07T09:41:57;102115.84;;;36.20;34.23
80180;BME280;69505;52.134;5.438;2023-09-07T09:44:23;102121.59;;;35.52;34.80
80180;BME280;69505;52.134;5.438;2023-09-07T09:46:53;102119.25;;;34.48;36.99
80180;BME280;69505;52.134;5.438;2023-09-07T09:49:23;102113.06;;;34.41;37.62
80180;BME280;69505;52.134;5.438;2023-09-07T09:51:50;102110.31;;;34.00;37.16
80180;BME280;69505;52.134;5.438;2023-09-07T09:54:20;102121.97;;;33.79;37.31
80180;BME280;69505;52.134;5.438;2023-09-07T09:56:48;102105.91;;;33.05;40.15
80180;BME280;69505;52.134;5.438;2023-09-07T09:59:15;102116.84;;;32.09;39.65
80180;BME280;69505;52.134;5.438;2023-09-07T10:01:46;102116.09;;;31.33;40.92
80180;BME280;69505;52.134;5.438;2023-09-07T10:04:15;102105.13;;;30.76;42.33
80180;BME280;69505;52.134;5.438;2023-09-07T10:06:53;102114.75;;;30.15;44.30
80180;BME280;69505;52.134;5.438;2023-09-07T10:09:20;102114.47;;;29.78;46.74
80180;BME280;69505;52.134;5.438;2023-09-07T10:11:54;102111.09;;;29.63;46.94
80180;BME280;69505;52.134;5.438;2023-09-07T10:14:20;102108.19;;;29.31;48.74
80180;BME280;69505;52.134;5.438;2023-09-07T10:16:54;102106.09;;;29.13;47.68
80180;BME280;69505;52.134;5.438;2023-09-07T10:19:29;102093.44;;;29.05;45.92
80180;BME280;69505;52.134;5.438;2023-09-07T10:22:20;102094.28;;;28.86;46.58
80180;BME280;69505;52.134;5.438;2023-09-07T10:24:57;102102.22;;;28.61;48.45
80180;BME280;69505;52.134;5.438;2023-09-07T10:27:23;102104.13;;;28.60;49.70
80180;BME280;69505;52.134;5.438;2023-09-07T10:29:50;102092.09;;;28.48;48.93
80180;BME280;69505;52.134;5.438;2023-09-07T10:32:22;102095.78;;;28.20;47.63
80180;BME280;69505;52.134;5.438;2023-09-07T10:34:50;102104.06;;;27.92;49.88
80180;BME280;69505;52.134;5.438;2023-09-07T10:37:16;102096.31;;;27.96;51.01
80180;BME280;69505;52.134;5.438;2023-09-07T10:39:44;102096.47;;;27.87;50.26
80180;BME280;69505;52.134;5.438;2023-09-07T10:42:29;102097.50;;;27.86;51.38
80180;BME280;69505;52.134;5.438;2023-09-07T10:45:07;102093.41;;;27.69;51.38
80180;BME280;69505;52.134;5.438;2023-09-07T10:47:34;102096.22;;;27.47;53.20
80180;BME280;69505;52.134;5.438;2023-09-07T10:50:01;102081.84;;;27.32;51.99
80180;BME280;69505;52.134;5.438;2023-09-07T10:52:33;102087.03;;;27.27;51.96
80180;BME280;69505;52.134;5.438;2023-09-07T10:55:02;102085.44;;;27.11;51.38
80180;BME280;69505;52.134;5.438;2023-09-07T10:57:30;102089.38;;;27.08;51.30
80180;BME280;69505;52.134;5.438;2023-09-07T10:59:56;102076.97;;;27.06;52.50
80180;BME280;69505;52.134;5.438;2023-09-07T11:02:23;102076.59;;;27.09;52.04
80180;BME280;69505;52.134;5.438;2023-09-07T11:04:50;102078.44;;;27.08;52.57
80180;BME280;69505;52.134;5.438;2023-09-07T11:07:17;102080.94;;;27.03;53.31
80180;BME280;69505;52.134;5.438;2023-09-07T11:09:44;102077.47;;;27.16;53.01
80180;BME280;69505;52.134;5.438;2023-09-07T11:12:14;102067.41;;;27.17;51.24
80180;BME280;69505;52.134;5.438;2023-09-07T11:14:42;102071.06;;;27.24;50.47
80180;BME280;69505;52.134;5.438;2023-09-07T11:17:09;102063.63;;;27.18;50.55
80180;BME280;69505;52.134;5.438;2023-09-07T11:19:36;102066.91;;;27.28;50.70
80180;BME280;69505;52.134;5.438;2023-09-07T11:22:03;102063.56;;;27.32;51.22
80180;BME280;69505;52.134;5.438;2023-09-07T11:24:32;102060.16;;;27.24;49.54
80180;BME280;69505;52.134;5.438;2023-09-07T11:27:01;102062.56;;;27.40;52.29
80180;BME280;69505;52.134;5.438;2023-09-07T11:29:31;102051.06;;;27.45;50.31
80180;BME280;69505;52.134;5.438;2023-09-07T11:32:10;102050.66;;;27.54;49.46
80180;BME280;69505;52.134;5.438;2023-09-07T11:34:50;102054.97;;;27.70;48.76
80180;BME280;69505;52.134;5.438;2023-09-07T11:37:25;102053.31;;;27.76;49.32
80180;BME280;69505;52.134;5.438;2023-09-07T11:39:52;102051.97;;;27.93;48.74
80180;BME280;69505;52.134;5.438;2023-09-07T11:42:18;102041.31;;;28.12;48.80
80180;BME280;69505;52.134;5.438;2023-09-07T11:44:45;102051.25;;;28.33;47.61
80180;BME280;69505;52.134;5.438;2023-09-07T11:47:12;102042.44;;;28.38;48.38
80180;BME280;69505;52.134;5.438;2023-09-07T11:49:38;102043.06;;;28.46;47.51
80180;BME280;69505;52.134;5.438;2023-09-07T11:52:05;102042.06;;;28.54;48.61
80180;BME280;69505;52.134;5.438;2023-09-07T11:54:32;102030.69;;;28.57;47.75
80180;BME280;69505;52.134;5.438;2023-09-07T11:56:58;102030.50;;;28.72;47.89
80180;BME280;69505;52.134;5.438;2023-09-07T11:59:25;102028.41;;;28.94;49.61
80180;BME280;69505;52.134;5.438;2023-09-07T12:01:51;102029.03;;;28.96;46.46
80180;BME280;69505;52.134;5.438;2023-09-07T12:04:18;102036.59;;;29.07;49.04
80180;BME280;69505;52.134;5.438;2023-09-07T12:06:45;102024.84;;;29.13;48.30
80180;BME280;69505;52.134;5.438;2023-09-07T12:09:11;102021.88;;;29.22;47.80
80180;BME280;69505;52.134;5.438;2023-09-07T12:11:39;102026.50;;;29.28;48.94
80180;BME280;69505;52.134;5.438;2023-09-07T12:14:05;102018.91;;;29.30;46.78
80180;BME280;69505;52.134;5.438;2023-09-07T12:16:32;102021.44;;;29.38;46.60
80180;BME280;69505;52.134;5.438;2023-09-07T12:18:59;102020.97;;;29.41;47.10
80180;BME280;69505;52.134;5.438;2023-09-07T12:21:26;102015.03;;;29.58;48.65
80180;BME280;69505;52.134;5.438;2023-09-07T12:23:52;102010.97;;;29.67;46.22
80180;BME280;69505;52.134;5.438;2023-09-07T12:26:19;102017.53;;;29.72;46.64
80180;BME280;69505;52.134;5.438;2023-09-07T12:28:47;102018.16;;;29.74;46.50
80180;BME280;69505;52.134;5.438;2023-09-07T12:31:14;102008.66;;;29.77;46.47
80180;BME280;69505;52.134;5.438;2023-09-07T12:33:42;102007.13;;;29.88;46.18
80180;BME280;69505;52.134;5.438;2023-09-07T12:36:08;101997.66;;;29.90;44.92
80180;BME280;69505;52.134;5.438;2023-09-07T12:38:36;101999.84;;;30.07;46.25
80180;BME280;69505;52.134;5.438;2023-09-07T12:41:03;101995.00;;;30.09;44.36
80180;BME280;69505;52.134;5.438;2023-09-07T12:43:29;102001.97;;;30.11;45.45
80180;BME280;69505;52.134;5.438;2023-09-07T12:45:57;101998.97;;;30.13;44.70
80180;BME280;69505;52.134;5.438;2023-09-07T12:48:23;101986.50;;;30.17;41.16